Архив погоды в Велиже

Метеограмма Велиж
Среда, 19 Июня
Время местн. Темп Ветер Видим Явления Облачность нижн/средн/верх Атм. давл. Влжн Точка росы ВНГО R Сост. почвы Tg s
Напр Скр Прв ур.ст ур.м изм
15:00 +26.7° С-З 2 - 25 км - переменная облачность 750 764 -0.5 44% +13.5° 1 км - - - -
12:00 +23.6° С 2 - 25 км - переменная облачность 750 764 +0.1 53% +13.4° 1 км - - - -
09:00 +22.4° штиль 0 - 25 км - ясно 750 765 0 62% +14.7° более 2.5 км 0 Влажная (без луж) - -
06:00 +11.3° штиль 0 - 15 км - ясно 750 765 +0.5 97% +10.9° более 2.5 км - - - -
03:00 +7.4° штиль 0 - 12 км - ясно 750 765 +0.5 99% +7.2° более 2.5 км - - - -
00:00 +9.6° штиль 0 - 15 км - ясно 749 764 +0.9 97% +9.2° более 2.5 км - - - -
Вторник, 18 Июня
Время местн. Темп Ветер Видим Явления Облачность нижн/средн/верх Атм. давл. Влжн Точка росы ВНГО R Сост. почвы Tg s
Напр Скр Прв ур.ст ур.м изм
21:00 +19.7° В,Ю-В 1 - 23 км - ясно 749 763 -0.3 64% +12.7° более 2.5 км 0 - - -
18:00 +24.7° В,Ю-В 3 - 25 км - ясно 749 763 -0.3 42% +11° более 2.5 км - - - -
15:00 +25.1° В,Ю-В 4 - 25 км - переменная облачность 749 763 +0.1 48% +13.4° 1 км - - - -
12:00 +22.8° В 3 - 25 км - переменная облачность 749 763 +0.2 63% +15.4° 1 км - - - -
09:00 +18.4° В 3 - 18 км - облачно 749 763 +0.6 83% +15.5° 1 км 0 Влажная (без луж) - -
06:00 +16.5° С 2 - 15 км - облачно 748 763 +0.8 86% +14.1° 1 км - - - -
03:00 +17.3° В 2 - 12 км - облачно 747 762 +0.6 96% +16.6° 1 км - - - -
00:00 +17.4° В 1 - 13 км - облачно с прояснениями 747 761 +0.5 96% +16.8° 1 км - - - -
Понедельник, 17 Июня
Время местн. Темп Ветер Видим Явления Облачность нижн/средн/верх Атм. давл. Влжн Точка росы ВНГО R Сост. почвы Tg s
Напр Скр Прв ур.ст ур.м изм
21:00 +20.3° В 1 - 23 км слабый ливневый дождь облачно с прояснениями 746 761 +0.1 84% +17.5° 1 км 0 - - -
18:00 +24.9° С 2 - 23 км - переменная облачность 746 760 -0.7 62% +17.2° 1 км - - - -
15:00 +23.8° В 2 - 23 км - облачно 747 761 -0.5 65% +16.9° 1 км - - - -
12:00 +21.8° Ю-З 1 - 22 км - облачно 747 762 -0.2 71% +16.4° 1 км - - - -
09:00 +18.8° штиль 0 - 15 км небо без изменений {ливневые осадки} облачно 748 762 +0.2 87% +16.5° 1 км 0 Влажная (без луж) - -
06:00 +16.3° штиль 0 - 12 км - облачно 747 762 +0.2 97% +15.9° 1 км - - - -
03:00 +15.2° штиль 0 - 12 км - облачно с прояснениями 747 762 0 97% +14.7° 1 км - - - -
00:00 +16.4° штиль 0 - 13 км - облачно с прояснениями 747 762 0 94% +15.4° 1 км - - - -
Воскресенье, 16 Июня
Время местн. Темп Ветер Видим Явления Облачность нижн/средн/верх Атм. давл. Влжн Точка росы ВНГО R Сост. почвы Tg s
Напр Скр Прв ур.ст ур.м изм
21:00 +20.6° Ю-З 1 - 22 км - переменная облачность 747 762 +0.1 77% +16.4° 1 км 0 - - -
18:00 +24.1° С 2 - 23 км - облачно с прояснениями 747 761 -0.6 52% +13.5° 1 км - - - -
15:00 +24.6° С 1 - 25 км - переменная облачность 748 762 -0.7 48% +12.8° 1 км - - - -
12:00 +22.9° С-З 2 - 25 км - переменная облачность 749 763 +0.1 57% +13.8° 1 км - - - -